sensor_id;sensor_type;location;lat;lon;timestamp;pressure;altitude;pressure_sealevel;temperature;humidity
70411;BME280;57832;46.038;11.398;2022-12-18T00:00:26;97915.06;;;-0.17;100.00
70411;BME280;57832;46.038;11.398;2022-12-18T00:02:51;97909.97;;;-0.27;100.00
70411;BME280;57832;46.038;11.398;2022-12-18T00:05:17;97913.53;;;-0.28;100.00
70411;BME280;57832;46.038;11.398;2022-12-18T00:07:42;97915.66;;;-0.23;100.00
70411;BME280;57832;46.038;11.398;2022-12-18T00:10:07;97912.53;;;-0.09;100.00
70411;BME280;57832;46.038;11.398;2022-12-18T00:12:33;97910.81;;;-0.26;100.00
70411;BME280;57832;46.038;11.398;2022-12-18T00:14:58;97908.44;;;-0.20;100.00
70411;BME280;57832;46.038;11.398;2022-12-18T00:17:24;97910.56;;;-0.15;100.00
70411;BME280;57832;46.038;11.398;2022-12-18T00:19:50;97911.44;;;-0.06;100.00
70411;BME280;57832;46.038;11.398;2022-12-18T00:22:15;97907.06;;;-0.06;100.00
70411;BME280;57832;46.038;11.398;2022-12-18T00:24:40;97901.53;;;0.07;100.00
70411;BME280;57832;46.038;11.398;2022-12-18T00:27:06;97905.06;;;0.06;100.00
70411;BME280;57832;46.038;11.398;2022-12-18T00:29:31;97915.22;;;0.08;100.00
70411;BME280;57832;46.038;11.398;2022-12-18T00:31:56;97907.13;;;0.03;100.00
70411;BME280;57832;46.038;11.398;2022-12-18T00:34:22;97919.53;;;-0.01;100.00
70411;BME280;57832;46.038;11.398;2022-12-18T00:36:47;97923.44;;;0.03;100.00
70411;BME280;57832;46.038;11.398;2022-12-18T00:39:13;97924.50;;;-0.08;100.00
70411;BME280;57832;46.038;11.398;2022-12-18T00:41:38;97929.28;;;-0.13;100.00
70411;BME280;57832;46.038;11.398;2022-12-18T00:44:22;97938.19;;;-0.07;100.00
70411;BME280;57832;46.038;11.398;2022-12-18T00:46:48;97944.44;;;-0.10;100.00
70411;BME280;57832;46.038;11.398;2022-12-18T00:49:13;97951.81;;;-0.15;100.00
70411;BME280;57832;46.038;11.398;2022-12-18T00:51:39;97959.47;;;-0.23;100.00
70411;BME280;57832;46.038;11.398;2022-12-18T00:54:04;97958.31;;;-0.29;100.00
70411;BME280;57832;46.038;11.398;2022-12-18T00:56:30;97965.22;;;-0.29;100.00
70411;BME280;57832;46.038;11.398;2022-12-18T00:58:55;97972.38;;;-0.41;100.00
70411;BME280;57832;46.038;11.398;2022-12-18T01:01:20;97974.22;;;-0.34;100.00
70411;BME280;57832;46.038;11.398;2022-12-18T01:03:46;97970.53;;;-0.31;100.00
70411;BME280;57832;46.038;11.398;2022-12-18T01:06:12;97979.69;;;-0.19;100.00
70411;BME280;57832;46.038;11.398;2022-12-18T01:08:38;97967.53;;;-0.26;100.00
70411;BME280;57832;46.038;11.398;2022-12-18T01:11:09;97974.59;;;-0.28;100.00
70411;BME280;57832;46.038;11.398;2022-12-18T01:13:35;97981.31;;;-0.36;100.00
70411;BME280;57832;46.038;11.398;2022-12-18T01:16:00;97981.44;;;-0.37;100.00
70411;BME280;57832;46.038;11.398;2022-12-18T01:18:26;97993.13;;;-0.43;100.00
70411;BME280;57832;46.038;11.398;2022-12-18T01:20:51;97992.63;;;-0.46;100.00
70411;BME280;57832;46.038;11.398;2022-12-18T01:23:17;97986.00;;;-0.49;100.00
70411;BME280;57832;46.038;11.398;2022-12-18T01:25:42;97989.06;;;-0.45;100.00
70411;BME280;57832;46.038;11.398;2022-12-18T01:28:07;98007.00;;;-0.44;100.00
70411;BME280;57832;46.038;11.398;2022-12-18T01:30:33;98004.53;;;-0.45;100.00
70411;BME280;57832;46.038;11.398;2022-12-18T01:32:58;97999.84;;;-0.50;100.00
70411;BME280;57832;46.038;11.398;2022-12-18T01:35:23;98009.78;;;-0.55;100.00
70411;BME280;57832;46.038;11.398;2022-12-18T01:37:49;98011.09;;;-0.79;100.00
70411;BME280;57832;46.038;11.398;2022-12-18T01:40:14;98011.78;;;-0.77;100.00
70411;BME280;57832;46.038;11.398;2022-12-18T01:42:39;98025.47;;;-0.76;100.00
70411;BME280;57832;46.038;11.398;2022-12-18T01:52:33;98029.59;;;-0.83;100.00
70411;BME280;57832;46.038;11.398;2022-12-18T01:55:00;98035.38;;;-0.81;100.00
70411;BME280;57832;46.038;11.398;2022-12-18T01:57:26;98040.63;;;-1.01;100.00
70411;BME280;57832;46.038;11.398;2022-12-18T01:59:53;98031.28;;;-1.02;100.00
70411;BME280;57832;46.038;11.398;2022-12-18T02:02:20;98040.94;;;-1.14;100.00
70411;BME280;57832;46.038;11.398;2022-12-18T02:04:45;98045.53;;;-1.08;100.00
70411;BME280;57832;46.038;11.398;2022-12-18T02:07:16;98045.53;;;-1.08;100.00
70411;BME280;57832;46.038;11.398;2022-12-18T02:09:50;98043.94;;;-1.19;100.00
70411;BME280;57832;46.038;11.398;2022-12-18T02:12:21;98059.41;;;-1.19;100.00
70411;BME280;57832;46.038;11.398;2022-12-18T02:17:17;98063.47;;;-1.26;100.00
70411;BME280;57832;46.038;11.398;2022-12-18T02:27:36;98071.22;;;-1.36;100.00
70411;BME280;57832;46.038;11.398;2022-12-18T02:30:02;98074.03;;;-1.19;100.00
70411;BME280;57832;46.038;11.398;2022-12-18T02:32:30;98079.16;;;-1.09;100.00
70411;BME280;57832;46.038;11.398;2022-12-18T02:34:57;98088.59;;;-1.00;100.00
70411;BME280;57832;46.038;11.398;2022-12-18T02:37:24;98081.28;;;-0.95;100.00
70411;BME280;57832;46.038;11.398;2022-12-18T02:39:52;98090.63;;;-0.94;100.00
70411;BME280;57832;46.038;11.398;2022-12-18T02:42:20;98089.38;;;-0.80;100.00
70411;BME280;57832;46.038;11.398;2022-12-18T02:44:49;98083.84;;;-0.85;100.00
70411;BME280;57832;46.038;11.398;2022-12-18T02:47:16;98085.50;;;-1.04;100.00
70411;BME280;57832;46.038;11.398;2022-12-18T02:52:10;98082.94;;;-1.13;100.00
70411;BME280;57832;46.038;11.398;2022-12-18T02:57:20;98083.66;;;-1.21;100.00
70411;BME280;57832;46.038;11.398;2022-12-18T03:00:08;98091.25;;;-1.20;100.00
70411;BME280;57832;46.038;11.398;2022-12-18T03:02:39;98105.19;;;-1.22;100.00
70411;BME280;57832;46.038;11.398;2022-12-18T03:05:16;98104.13;;;-1.20;100.00
70411;BME280;57832;46.038;11.398;2022-12-18T03:08:26;98102.50;;;-1.30;100.00
70411;BME280;57832;46.038;11.398;2022-12-18T03:10:33;98099.66;;;-1.37;100.00
70411;BME280;57832;46.038;11.398;2022-12-18T03:13:02;98100.72;;;-1.30;100.00
70411;BME280;57832;46.038;11.398;2022-12-18T03:15:34;98101.69;;;-1.31;100.00
70411;BME280;57832;46.038;11.398;2022-12-18T03:18:04;98103.88;;;-1.46;100.00
70411;BME280;57832;46.038;11.398;2022-12-18T03:20:32;98107.53;;;-1.58;100.00
70411;BME280;57832;46.038;11.398;2022-12-18T03:23:07;98110.09;;;-1.58;100.00
70411;BME280;57832;46.038;11.398;2022-12-18T03:25:34;98103.88;;;-1.56;100.00
70411;BME280;57832;46.038;11.398;2022-12-18T03:28:02;98111.19;;;-1.80;100.00
70411;BME280;57832;46.038;11.398;2022-12-18T03:30:31;98105.75;;;-1.87;100.00
70411;BME280;57832;46.038;11.398;2022-12-18T03:33:01;98106.69;;;-1.88;100.00
70411;BME280;57832;46.038;11.398;2022-12-18T03:35:29;98104.53;;;-1.93;100.00
70411;BME280;57832;46.038;11.398;2022-12-18T03:37:57;98106.69;;;-2.08;100.00
70411;BME280;57832;46.038;11.398;2022-12-18T03:40:24;98107.06;;;-2.12;100.00
70411;BME280;57832;46.038;11.398;2022-12-18T03:42:52;98105.34;;;-2.02;100.00
70411;BME280;57832;46.038;11.398;2022-12-18T03:45:22;98109.78;;;-2.14;100.00
70411;BME280;57832;46.038;11.398;2022-12-18T03:48:00;98122.50;;;-2.22;100.00
70411;BME280;57832;46.038;11.398;2022-12-18T03:50:33;98121.13;;;-2.26;100.00
70411;BME280;57832;46.038;11.398;2022-12-18T03:55:38;98132.19;;;-2.36;100.00
70411;BME280;57832;46.038;11.398;2022-12-18T03:58:05;98135.06;;;-2.29;100.00
70411;BME280;57832;46.038;11.398;2022-12-18T04:00:32;98142.91;;;-2.30;100.00
70411;BME280;57832;46.038;11.398;2022-12-18T04:02:59;98144.09;;;-2.34;100.00
70411;BME280;57832;46.038;11.398;2022-12-18T04:05:25;98150.03;;;-2.44;100.00
70411;BME280;57832;46.038;11.398;2022-12-18T04:07:52;98153.75;;;-2.48;100.00
70411;BME280;57832;46.038;11.398;2022-12-18T04:10:19;98158.97;;;-2.28;100.00
70411;BME280;57832;46.038;11.398;2022-12-18T04:12:44;98157.53;;;-2.21;100.00
70411;BME280;57832;46.038;11.398;2022-12-18T04:15:10;98167.03;;;-2.12;100.00
70411;BME280;57832;46.038;11.398;2022-12-18T04:17:35;98162.25;;;-2.26;100.00
70411;BME280;57832;46.038;11.398;2022-12-18T04:20:01;98163.25;;;-2.39;100.00
70411;BME280;57832;46.038;11.398;2022-12-18T04:22:27;98165.94;;;-2.50;100.00
70411;BME280;57832;46.038;11.398;2022-12-18T04:24:52;98173.78;;;-2.52;100.00
70411;BME280;57832;46.038;11.398;2022-12-18T04:27:17;98171.66;;;-2.46;100.00
70411;BME280;57832;46.038;11.398;2022-12-18T04:29:43;98173.81;;;-2.42;100.00
70411;BME280;57832;46.038;11.398;2022-12-18T04:32:08;98181.78;;;-2.45;100.00
70411;BME280;57832;46.038;11.398;2022-12-18T04:34:34;98186.56;;;-2.61;100.00
70411;BME280;57832;46.038;11.398;2022-12-18T04:36:59;98188.47;;;-2.63;100.00
70411;BME280;57832;46.038;11.398;2022-12-18T04:39:24;98196.44;;;-2.66;100.00
70411;BME280;57832;46.038;11.398;2022-12-18T04:41:50;98193.47;;;-2.62;100.00
70411;BME280;57832;46.038;11.398;2022-12-18T04:44:15;98200.16;;;-2.71;100.00
70411;BME280;57832;46.038;11.398;2022-12-18T04:46:41;98204.44;;;-2.60;100.00
70411;BME280;57832;46.038;11.398;2022-12-18T04:49:06;98206.31;;;-2.62;100.00
70411;BME280;57832;46.038;11.398;2022-12-18T04:51:32;98207.47;;;-2.45;100.00
70411;BME280;57832;46.038;11.398;2022-12-18T04:53:57;98215.66;;;-2.61;100.00
70411;BME280;57832;46.038;11.398;2022-12-18T04:56:22;98222.44;;;-2.81;100.00
70411;BME280;57832;46.038;11.398;2022-12-18T04:58:48;98225.94;;;-2.82;100.00
70411;BME280;57832;46.038;11.398;2022-12-18T05:01:14;98224.16;;;-2.81;100.00
70411;BME280;57832;46.038;11.398;2022-12-18T05:03:40;98223.09;;;-2.79;100.00
70411;BME280;57832;46.038;11.398;2022-12-18T05:06:05;98228.69;;;-2.74;100.00
70411;BME280;57832;46.038;11.398;2022-12-18T05:08:31;98231.31;;;-2.85;100.00
70411;BME280;57832;46.038;11.398;2022-12-18T05:13:25;98234.69;;;-2.84;100.00
70411;BME280;57832;46.038;11.398;2022-12-18T05:15:51;98230.34;;;-2.84;100.00
70411;BME280;57832;46.038;11.398;2022-12-18T05:18:17;98235.69;;;-2.97;100.00
70411;BME280;57832;46.038;11.398;2022-12-18T05:20:42;98237.88;;;-2.92;100.00
70411;BME280;57832;46.038;11.398;2022-12-18T05:23:08;98242.09;;;-2.91;100.00
70411;BME280;57832;46.038;11.398;2022-12-18T05:25:33;98246.09;;;-2.98;100.00
70411;BME280;57832;46.038;11.398;2022-12-18T05:27:58;98246.22;;;-2.79;100.00
70411;BME280;57832;46.038;11.398;2022-12-18T05:30:24;98251.34;;;-2.79;100.00
70411;BME280;57832;46.038;11.398;2022-12-18T05:32:49;98252.66;;;-3.06;100.00
70411;BME280;57832;46.038;11.398;2022-12-18T05:35:15;98252.31;;;-3.12;100.00
70411;BME280;57832;46.038;11.398;2022-12-18T05:37:40;98250.03;;;-3.27;100.00
70411;BME280;57832;46.038;11.398;2022-12-18T05:40:05;98265.81;;;-3.31;100.00
70411;BME280;57832;46.038;11.398;2022-12-18T05:42:31;98258.13;;;-3.43;100.00
70411;BME280;57832;46.038;11.398;2022-12-18T05:44:56;98259.38;;;-3.26;100.00
70411;BME280;57832;46.038;11.398;2022-12-18T05:47:22;98272.78;;;-3.22;100.00
70411;BME280;57832;46.038;11.398;2022-12-18T05:49:47;98268.22;;;-3.18;100.00
70411;BME280;57832;46.038;11.398;2022-12-18T05:52:12;98272.31;;;-3.27;100.00
70411;BME280;57832;46.038;11.398;2022-12-18T05:54:38;98271.41;;;-3.38;100.00
70411;BME280;57832;46.038;11.398;2022-12-18T05:57:04;98282.00;;;-3.31;100.00
70411;BME280;57832;46.038;11.398;2022-12-18T05:59:30;98279.94;;;-3.37;100.00
70411;BME280;57832;46.038;11.398;2022-12-18T06:01:55;98291.34;;;-3.30;100.00
70411;BME280;57832;46.038;11.398;2022-12-18T06:04:20;98295.84;;;-3.11;100.00
70411;BME280;57832;46.038;11.398;2022-12-18T06:06:46;98291.69;;;-3.23;100.00
70411;BME280;57832;46.038;11.398;2022-12-18T06:09:11;98300.50;;;-3.16;100.00
70411;BME280;57832;46.038;11.398;2022-12-18T06:11:37;98296.72;;;-3.33;100.00
70411;BME280;57832;46.038;11.398;2022-12-18T06:14:03;98302.00;;;-3.46;100.00
70411;BME280;57832;46.038;11.398;2022-12-18T06:16:28;98303.38;;;-3.42;100.00
70411;BME280;57832;46.038;11.398;2022-12-18T06:19:00;98314.34;;;-3.40;100.00
70411;BME280;57832;46.038;11.398;2022-12-18T06:21:26;98318.56;;;-3.50;100.00
70411;BME280;57832;46.038;11.398;2022-12-18T06:23:52;98313.63;;;-3.42;100.00
70411;BME280;57832;46.038;11.398;2022-12-18T06:26:18;98318.91;;;-3.43;100.00
70411;BME280;57832;46.038;11.398;2022-12-18T06:28:43;98319.56;;;-3.41;100.00
70411;BME280;57832;46.038;11.398;2022-12-18T06:31:09;98324.34;;;-3.25;100.00
70411;BME280;57832;46.038;11.398;2022-12-18T06:33:34;98325.41;;;-3.39;100.00
70411;BME280;57832;46.038;11.398;2022-12-18T06:36:04;98326.34;;;-3.29;100.00
70411;BME280;57832;46.038;11.398;2022-12-18T06:38:31;98329.47;;;-3.25;100.00
70411;BME280;57832;46.038;11.398;2022-12-18T06:40:57;98330.81;;;-3.42;100.00
70411;BME280;57832;46.038;11.398;2022-12-18T06:43:22;98337.44;;;-3.51;100.00
70411;BME280;57832;46.038;11.398;2022-12-18T06:45:48;98335.59;;;-3.60;100.00
70411;BME280;57832;46.038;11.398;2022-12-18T06:48:18;98347.13;;;-3.55;100.00
70411;BME280;57832;46.038;11.398;2022-12-18T06:50:43;98333.25;;;-3.52;100.00
70411;BME280;57832;46.038;11.398;2022-12-18T06:53:09;98337.34;;;-3.61;100.00
70411;BME280;57832;46.038;11.398;2022-12-18T06:55:34;98331.16;;;-3.70;100.00
70411;BME280;57832;46.038;11.398;2022-12-18T06:57:59;98335.47;;;-3.70;100.00
70411;BME280;57832;46.038;11.398;2022-12-18T07:00:25;98344.44;;;-3.64;100.00
70411;BME280;57832;46.038;11.398;2022-12-18T07:02:50;98343.53;;;-3.63;100.00
70411;BME280;57832;46.038;11.398;2022-12-18T07:05:15;98348.06;;;-3.67;100.00
70411;BME280;57832;46.038;11.398;2022-12-18T07:07:41;98355.41;;;-3.74;100.00
70411;BME280;57832;46.038;11.398;2022-12-18T07:10:06;98361.13;;;-3.70;100.00
70411;BME280;57832;46.038;11.398;2022-12-18T07:12:32;98360.78;;;-3.54;100.00
70411;BME280;57832;46.038;11.398;2022-12-18T07:14:57;98363.09;;;-3.74;100.00
70411;BME280;57832;46.038;11.398;2022-12-18T07:17:22;98362.28;;;-3.74;100.00
70411;BME280;57832;46.038;11.398;2022-12-18T07:19:48;98371.16;;;-3.78;100.00
70411;BME280;57832;46.038;11.398;2022-12-18T07:22:13;98370.00;;;-3.74;100.00
70411;BME280;57832;46.038;11.398;2022-12-18T07:24:39;98372.41;;;-3.84;100.00
70411;BME280;57832;46.038;11.398;2022-12-18T07:27:04;98379.19;;;-3.83;100.00
70411;BME280;57832;46.038;11.398;2022-12-18T07:29:29;98374.31;;;-3.63;100.00
70411;BME280;57832;46.038;11.398;2022-12-18T07:31:55;98378.50;;;-3.62;100.00
70411;BME280;57832;46.038;11.398;2022-12-18T07:34:20;98390.50;;;-3.51;100.00
70411;BME280;57832;46.038;11.398;2022-12-18T07:36:45;98396.47;;;-3.40;100.00
70411;BME280;57832;46.038;11.398;2022-12-18T07:39:11;98396.44;;;-3.28;100.00
70411;BME280;57832;46.038;11.398;2022-12-18T07:41:36;98398.31;;;-3.53;100.00
70411;BME280;57832;46.038;11.398;2022-12-18T07:44:02;98400.63;;;-3.73;100.00
70411;BME280;57832;46.038;11.398;2022-12-18T07:46:27;98411.47;;;-3.80;100.00
70411;BME280;57832;46.038;11.398;2022-12-18T07:48:52;98416.13;;;-3.63;100.00
70411;BME280;57832;46.038;11.398;2022-12-18T07:51:18;98416.03;;;-3.61;100.00
70411;BME280;57832;46.038;11.398;2022-12-18T07:53:43;98422.78;;;-3.60;100.00
70411;BME280;57832;46.038;11.398;2022-12-18T07:56:09;98422.09;;;-3.51;100.00
70411;BME280;57832;46.038;11.398;2022-12-18T07:58:35;98419.28;;;-3.48;100.00
70411;BME280;57832;46.038;11.398;2022-12-18T08:03:29;98423.97;;;-3.42;100.00
70411;BME280;57832;46.038;11.398;2022-12-18T08:05:58;98422.09;;;-3.28;100.00
70411;BME280;57832;46.038;11.398;2022-12-18T08:08:23;98429.91;;;-3.53;100.00
70411;BME280;57832;46.038;11.398;2022-12-18T08:10:48;98431.56;;;-3.51;100.00
70411;BME280;57832;46.038;11.398;2022-12-18T08:13:14;98436.19;;;-3.45;100.00
70411;BME280;57832;46.038;11.398;2022-12-18T08:15:39;98442.66;;;-3.40;100.00
70411;BME280;57832;46.038;11.398;2022-12-18T08:18:04;98438.44;;;-3.29;100.00
70411;BME280;57832;46.038;11.398;2022-12-18T08:20:30;98444.03;;;-3.36;100.00
70411;BME280;57832;46.038;11.398;2022-12-18T08:22:55;98437.13;;;-3.58;100.00
70411;BME280;57832;46.038;11.398;2022-12-18T08:25:23;98442.25;;;-3.58;100.00
70411;BME280;57832;46.038;11.398;2022-12-18T08:27:48;98456.25;;;-3.62;100.00
70411;BME280;57832;46.038;11.398;2022-12-18T08:30:13;98450.88;;;-3.59;100.00
70411;BME280;57832;46.038;11.398;2022-12-18T08:32:39;98465.25;;;-3.33;100.00
70411;BME280;57832;46.038;11.398;2022-12-18T08:35:04;98456.38;;;-3.07;100.00
70411;BME280;57832;46.038;11.398;2022-12-18T08:37:30;98458.25;;;-2.97;100.00
70411;BME280;57832;46.038;11.398;2022-12-18T08:39:55;98454.16;;;-3.00;100.00
70411;BME280;57832;46.038;11.398;2022-12-18T08:42:20;98458.03;;;-3.06;100.00
70411;BME280;57832;46.038;11.398;2022-12-18T08:45:04;98456.63;;;-3.10;100.00
70411;BME280;57832;46.038;11.398;2022-12-18T08:47:30;98456.66;;;-3.21;100.00
70411;BME280;57832;46.038;11.398;2022-12-18T08:49:55;98456.63;;;-3.10;100.00
70411;BME280;57832;46.038;11.398;2022-12-18T08:52:20;98467.69;;;-3.09;100.00
70411;BME280;57832;46.038;11.398;2022-12-18T08:54:46;98467.25;;;-3.03;100.00
70411;BME280;57832;46.038;11.398;2022-12-18T08:57:11;98473.19;;;-2.91;100.00
70411;BME280;57832;46.038;11.398;2022-12-18T08:59:36;98472.13;;;-2.89;100.00
70411;BME280;57832;46.038;11.398;2022-12-18T09:02:02;98475.63;;;-2.90;100.00
70411;BME280;57832;46.038;11.398;2022-12-18T09:04:27;98479.47;;;-2.84;100.00
70411;BME280;57832;46.038;11.398;2022-12-18T09:06:53;98478.31;;;-2.80;100.00
70411;BME280;57832;46.038;11.398;2022-12-18T09:09:18;98479.72;;;-2.76;100.00
70411;BME280;57832;46.038;11.398;2022-12-18T09:11:43;98479.81;;;-2.66;100.00
70411;BME280;57832;46.038;11.398;2022-12-18T09:14:09;98476.66;;;-2.70;100.00
70411;BME280;57832;46.038;11.398;2022-12-18T09:16:34;98485.00;;;-2.45;100.00
70411;BME280;57832;46.038;11.398;2022-12-18T09:19:00;98485.16;;;-2.58;100.00
70411;BME280;57832;46.038;11.398;2022-12-18T09:21:27;98492.22;;;-2.39;100.00
70411;BME280;57832;46.038;11.398;2022-12-18T09:23:54;98491.16;;;-2.36;100.00
70411;BME280;57832;46.038;11.398;2022-12-18T09:26:20;98494.69;;;-2.37;100.00
70411;BME280;57832;46.038;11.398;2022-12-18T09:28:46;98489.88;;;-2.30;100.00
70411;BME280;57832;46.038;11.398;2022-12-18T09:31:12;98492.06;;;-2.26;100.00
70411;BME280;57832;46.038;11.398;2022-12-18T09:33:39;98488.25;;;-2.43;100.00
70411;BME280;57832;46.038;11.398;2022-12-18T09:36:05;98490.56;;;-2.28;100.00
70411;BME280;57832;46.038;11.398;2022-12-18T09:38:31;98483.25;;;-2.44;100.00
70411;BME280;57832;46.038;11.398;2022-12-18T09:40:59;98485.28;;;-2.27;100.00
70411;BME280;57832;46.038;11.398;2022-12-18T09:43:30;98483.44;;;-2.25;100.00
70411;BME280;57832;46.038;11.398;2022-12-18T09:46:04;98478.22;;;-2.13;100.00
70411;BME280;57832;46.038;11.398;2022-12-18T09:48:37;98472.34;;;-2.04;100.00
70411;BME280;57832;46.038;11.398;2022-12-18T09:51:23;98472.09;;;-2.22;100.00
70411;BME280;57832;46.038;11.398;2022-12-18T09:53:57;98460.28;;;-2.25;100.00
70411;BME280;57832;46.038;11.398;2022-12-18T09:56:24;98473.72;;;-2.21;100.00
70411;BME280;57832;46.038;11.398;2022-12-18T09:58:57;98465.03;;;-2.09;100.00
70411;BME280;57832;46.038;11.398;2022-12-18T10:01:23;98466.66;;;-2.08;100.00
70411;BME280;57832;46.038;11.398;2022-12-18T10:03:49;98464.31;;;-2.11;100.00
70411;BME280;57832;46.038;11.398;2022-12-18T10:08:46;98460.13;;;-1.91;100.00
70411;BME280;57832;46.038;11.398;2022-12-18T10:14:05;98459.81;;;-1.97;100.00
70411;BME280;57832;46.038;11.398;2022-12-18T10:16:47;98449.75;;;-1.89;100.00
70411;BME280;57832;46.038;11.398;2022-12-18T10:19:25;98449.75;;;-1.89;100.00
70411;BME280;57832;46.038;11.398;2022-12-18T10:21:56;98448.31;;;-1.72;100.00
70411;BME280;57832;46.038;11.398;2022-12-18T10:27:21;98454.00;;;-1.78;100.00
70411;BME280;57832;46.038;11.398;2022-12-18T10:29:47;98446.72;;;-1.73;100.00
70411;BME280;57832;46.038;11.398;2022-12-18T10:32:13;98443.75;;;-1.90;100.00
70411;BME280;57832;46.038;11.398;2022-12-18T10:34:39;98441.94;;;-1.78;100.00
70411;BME280;57832;46.038;11.398;2022-12-18T10:37:06;98435.84;;;-1.77;100.00
70411;BME280;57832;46.038;11.398;2022-12-18T10:39:31;98441.13;;;-1.78;100.00
70411;BME280;57832;46.038;11.398;2022-12-18T10:42:10;98437.41;;;-1.86;100.00
70411;BME280;57832;46.038;11.398;2022-12-18T10:44:37;98433.78;;;-1.83;100.00
70411;BME280;57832;46.038;11.398;2022-12-18T10:47:04;98423.00;;;-1.77;100.00
70411;BME280;57832;46.038;11.398;2022-12-18T10:49:31;98419.91;;;-1.71;100.00
70411;BME280;57832;46.038;11.398;2022-12-18T10:52:07;98420.59;;;-1.90;100.00
70411;BME280;57832;46.038;11.398;2022-12-18T10:54:33;98409.19;;;-1.76;100.00
70411;BME280;57832;46.038;11.398;2022-12-18T10:57:41;98417.25;;;-1.59;100.00
70411;BME280;57832;46.038;11.398;2022-12-18T10:59:51;98405.16;;;-1.38;100.00
70411;BME280;57832;46.038;11.398;2022-12-18T11:02:50;98413.66;;;-1.47;100.00
70411;BME280;57832;46.038;11.398;2022-12-18T11:07:53;98402.41;;;-1.46;100.00
70411;BME280;57832;46.038;11.398;2022-12-18T11:10:23;98402.53;;;-1.07;100.00
70411;BME280;57832;46.038;11.398;2022-12-18T11:12:49;98406.84;;;-0.27;100.00
70411;BME280;57832;46.038;11.398;2022-12-18T11:15:26;98404.44;;;2.20;100.00
70411;BME280;57832;46.038;11.398;2022-12-18T11:17:52;98381.78;;;6.42;100.00
70411;BME280;57832;46.038;11.398;2022-12-18T11:22:43;98369.94;;;12.25;99.94
70411;BME280;57832;46.038;11.398;2022-12-18T11:25:19;98374.28;;;10.91;100.00
70411;BME280;57832;46.038;11.398;2022-12-18T11:27:58;98385.44;;;8.99;100.00
70411;BME280;57832;46.038;11.398;2022-12-18T11:30:28;98384.03;;;6.30;100.00
70411;BME280;57832;46.038;11.398;2022-12-18T11:33:27;98387.88;;;6.34;100.00
70411;BME280;57832;46.038;11.398;2022-12-18T11:35:52;98375.81;;;6.18;100.00
70411;BME280;57832;46.038;11.398;2022-12-18T11:38:22;98388.06;;;6.47;100.00
70411;BME280;57832;46.038;11.398;2022-12-18T11:45:56;98368.13;;;5.86;100.00
70411;BME280;57832;46.038;11.398;2022-12-18T11:48:32;98368.53;;;5.75;100.00
70411;BME280;57832;46.038;11.398;2022-12-18T11:50:59;98358.41;;;6.48;100.00
70411;BME280;57832;46.038;11.398;2022-12-18T11:53:26;98352.41;;;7.64;100.00
70411;BME280;57832;46.038;11.398;2022-12-18T12:06:32;98359.50;;;7.06;100.00
70411;BME280;57832;46.038;11.398;2022-12-18T12:24:23;98356.88;;;6.54;100.00
70411;BME280;57832;46.038;11.398;2022-12-18T12:27:05;98351.63;;;6.69;100.00
70411;BME280;57832;46.038;11.398;2022-12-18T12:37:19;98339.81;;;9.62;88.36
70411;BME280;57832;46.038;11.398;2022-12-18T12:39:45;98335.09;;;7.35;100.00
70411;BME280;57832;46.038;11.398;2022-12-18T12:45:13;98333.41;;;6.54;100.00
70411;BME280;57832;46.038;11.398;2022-12-18T12:47:41;98347.00;;;5.81;100.00
70411;BME280;57832;46.038;11.398;2022-12-18T12:50:12;98341.91;;;5.88;100.00
70411;BME280;57832;46.038;11.398;2022-12-18T12:55:33;98332.56;;;5.56;100.00
70411;BME280;57832;46.038;11.398;2022-12-18T13:00:29;98334.22;;;5.33;100.00
70411;BME280;57832;46.038;11.398;2022-12-18T13:05:50;98338.81;;;4.68;100.00
70411;BME280;57832;46.038;11.398;2022-12-18T13:08:25;98338.03;;;4.12;100.00
70411;BME280;57832;46.038;11.398;2022-12-18T13:10:52;98336.25;;;4.12;100.00
70411;BME280;57832;46.038;11.398;2022-12-18T13:14:12;98334.34;;;3.98;100.00
70411;BME280;57832;46.038;11.398;2022-12-18T13:16:29;98327.72;;;3.54;100.00
70411;BME280;57832;46.038;11.398;2022-12-18T13:18:55;98338.75;;;3.64;100.00
70411;BME280;57832;46.038;11.398;2022-12-18T13:21:25;98328.84;;;3.60;100.00
70411;BME280;57832;46.038;11.398;2022-12-18T13:23:52;98324.63;;;3.09;100.00
70411;BME280;57832;46.038;11.398;2022-12-18T13:31:58;98320.06;;;2.95;100.00
70411;BME280;57832;46.038;11.398;2022-12-18T13:34:16;98311.63;;;2.93;100.00
70411;BME280;57832;46.038;11.398;2022-12-18T13:36:42;98308.47;;;2.64;100.00
70411;BME280;57832;46.038;11.398;2022-12-18T13:41:35;98305.56;;;2.59;100.00
70411;BME280;57832;46.038;11.398;2022-12-18T13:46:56;98314.00;;;2.27;100.00
70411;BME280;57832;46.038;11.398;2022-12-18T13:51:50;98312.88;;;2.64;100.00
70411;BME280;57832;46.038;11.398;2022-12-18T13:54:30;98315.81;;;2.77;100.00
70411;BME280;57832;46.038;11.398;2022-12-18T13:56:58;98324.56;;;2.76;100.00
70411;BME280;57832;46.038;11.398;2022-12-18T13:59:24;98324.16;;;2.55;100.00
70411;BME280;57832;46.038;11.398;2022-12-18T14:04:23;98324.09;;;1.77;100.00
70411;BME280;57832;46.038;11.398;2022-12-18T14:06:49;98329.75;;;1.81;100.00
70411;BME280;57832;46.038;11.398;2022-12-18T14:09:15;98327.91;;;1.73;100.00
70411;BME280;57832;46.038;11.398;2022-12-18T14:11:48;98327.13;;;1.99;100.00
70411;BME280;57832;46.038;11.398;2022-12-18T14:14:15;98332.00;;;2.02;100.00
70411;BME280;57832;46.038;11.398;2022-12-18T14:16:41;98325.78;;;1.69;100.00
70411;BME280;57832;46.038;11.398;2022-12-18T14:19:08;98333.50;;;1.60;100.00
70411;BME280;57832;46.038;11.398;2022-12-18T14:21:37;98329.47;;;1.84;100.00
70411;BME280;57832;46.038;11.398;2022-12-18T14:24:06;98330.59;;;1.63;100.00
70411;BME280;57832;46.038;11.398;2022-12-18T14:26:38;98335.00;;;1.27;100.00
70411;BME280;57832;46.038;11.398;2022-12-18T14:29:20;98342.25;;;1.23;100.00
70411;BME280;57832;46.038;11.398;2022-12-18T14:31:46;98335.81;;;1.45;100.00
70411;BME280;57832;46.038;11.398;2022-12-18T14:34:17;98337.03;;;1.59;100.00